TPC201 LTBJ-LTFM
Flight info
| Callsign | TPC201 |
|---|---|
| Flight time | 0h 52m |
| Altitude | 28000 |
| Route | BERGO1S BERGO N618 DUGLA/N0367F270 Z713 INBET INBET2B |
| Aircraft | A20N/M-SDE2E3FGHIRWXY/LB1 |
Departure
| Time | 2026-02-17 12:12 |
|---|---|
| Airport | Adnan Menderes International Airport (LTBJ) |
Arrival
| Time | 2026-02-17 13:05 |
|---|---|
| Airport | İstanbul Airport (LTFM) |
| Time | Latitude | Longitude | Altitude | Speed | Heading |
|---|---|---|---|---|---|
| 2026-02-17 12:05 | 38.29431 | 27.15033 | 397 ft | 0 kts | 131° |
| 2026-02-17 12:06 | 38.29430 | 27.15034 | 397 ft | 0 kts | 131° |
| 2026-02-17 12:07 | 38.29410 | 27.15096 | 396 ft | 0 kts | 106° |
| 2026-02-17 12:08 | 38.29334 | 27.15131 | 395 ft | 20 kts | 171° |
| 2026-02-17 12:08 | 38.29190 | 27.15181 | 393 ft | 23 kts | 166° |
| 2026-02-17 12:08 | 38.29033 | 27.15230 | 391 ft | 17 kts | 166° |
| 2026-02-17 12:08 | 38.29015 | 27.15258 | 391 ft | 4 kts | 102° |
| 2026-02-17 12:09 | 38.29011 | 27.15290 | 391 ft | 4 kts | 101° |
| 2026-02-17 12:09 | 38.29014 | 27.15351 | 391 ft | 14 kts | 58° |
| 2026-02-17 12:09 | 38.29053 | 27.15484 | 392 ft | 13 kts | 74° |
| 2026-02-17 12:09 | 38.29170 | 27.15495 | 393 ft | 29 kts | 345° |
| 2026-02-17 12:10 | 38.29413 | 27.15423 | 396 ft | 41 kts | 348° |
| 2026-02-17 12:10 | 38.29725 | 27.15334 | 396 ft | 50 kts | 346° |
| 2026-02-17 12:10 | 38.30065 | 27.15229 | 403 ft | 50 kts | 346° |
| 2026-02-17 12:11 | 38.30437 | 27.15116 | 411 ft | 27 kts | 347° |
| 2026-02-17 12:11 | 38.30543 | 27.15086 | 410 ft | 15 kts | 353° |
| 2026-02-17 12:11 | 38.30621 | 27.15194 | 410 ft | 20 kts | 78° |
| 2026-02-17 12:11 | 38.30556 | 27.15298 | 411 ft | 16 kts | 162° |
| 2026-02-17 12:12 | 38.30234 | 27.15400 | 407 ft | 92 kts | 167° |
| 2026-02-17 12:12 | 38.29350 | 27.15646 | 418 ft | 163 kts | 168° |
| 2026-02-17 12:12 | 38.28141 | 27.15981 | 882 ft | 192 kts | 168° |
| 2026-02-17 12:12 | 38.26847 | 27.16329 | 2091 ft | 188 kts | 171° |
| 2026-02-17 12:13 | 38.25552 | 27.16686 | 3290 ft | 202 kts | 173° |
| 2026-02-17 12:13 | 38.24099 | 27.17097 | 4198 ft | 226 kts | 173° |
| 2026-02-17 12:13 | 38.22524 | 27.17567 | 5245 ft | 236 kts | 172° |
| 2026-02-17 12:13 | 38.20906 | 27.18067 | 6419 ft | 242 kts | 172° |
| 2026-02-17 12:14 | 38.19311 | 27.18916 | 7543 ft | 257 kts | 156° |
| 2026-02-17 12:14 | 38.17881 | 27.20388 | 8662 ft | 276 kts | 139° |
| 2026-02-17 12:14 | 38.16886 | 27.22572 | 9731 ft | 299 kts | 115° |
| 2026-02-17 12:15 | 38.17255 | 27.28206 | 11135 ft | 360 kts | 66° |
| 2026-02-17 12:15 | 38.18772 | 27.30863 | 11733 ft | 383 kts | 43° |
| 2026-02-17 12:15 | 38.21010 | 27.32718 | 12785 ft | 387 kts | 20° |
| 2026-02-17 12:15 | 38.23615 | 27.33504 | 13842 ft | 386 kts | 359° |
| 2026-02-17 12:16 | 38.26230 | 27.33151 | 14796 ft | 380 kts | 338° |
| 2026-02-17 12:16 | 38.28576 | 27.31721 | 15815 ft | 371 kts | 317° |
| 2026-02-17 12:16 | 38.30363 | 27.29437 | 16784 ft | 361 kts | 297° |
| 2026-02-17 12:16 | 38.31402 | 27.26594 | 17740 ft | 353 kts | 278° |
| 2026-02-17 12:17 | 38.31613 | 27.23521 | 18616 ft | 347 kts | 262° |
| 2026-02-17 12:17 | 38.31682 | 27.20430 | 19475 ft | 356 kts | 275° |
| 2026-02-17 12:17 | 38.32495 | 27.17391 | 20363 ft | 370 kts | 292° |
| 2026-02-17 12:17 | 38.34048 | 27.14674 | 21188 ft | 389 kts | 308° |
| 2026-02-17 12:18 | 38.36234 | 27.12539 | 21986 ft | 406 kts | 323° |
| 2026-02-17 12:18 | 38.38899 | 27.11164 | 22746 ft | 422 kts | 339° |
| 2026-02-17 12:18 | 38.41866 | 27.10680 | 23415 ft | 438 kts | 355° |
| 2026-02-17 12:19 | 38.47877 | 27.12436 | 24629 ft | 458 kts | 17° |
| 2026-02-17 12:19 | 38.50915 | 27.13706 | 25171 ft | 459 kts | 10° |
| 2026-02-17 12:19 | 38.54051 | 27.14454 | 25685 ft | 457 kts | 1° |
| 2026-02-17 12:19 | 38.57217 | 27.14743 | 26195 ft | 453 kts | 356° |
| 2026-02-17 12:20 | 38.60374 | 27.14772 | 26512 ft | 456 kts | 353° |
| 2026-02-17 12:20 | 38.63554 | 27.14674 | 26987 ft | 458 kts | 352° |
| 2026-02-17 12:20 | 38.66752 | 27.14538 | 27474 ft | 461 kts | 352° |
| 2026-02-17 12:20 | 38.69967 | 27.14399 | 27882 ft | 464 kts | 352° |
| 2026-02-17 12:21 | 38.73199 | 27.14266 | 27976 ft | 465 kts | 352° |
| 2026-02-17 12:21 | 38.76434 | 27.14141 | 27976 ft | 464 kts | 352° |
| 2026-02-17 12:21 | 38.79662 | 27.14021 | 27970 ft | 465 kts | 352° |
| 2026-02-17 12:21 | 38.82905 | 27.13903 | 27978 ft | 465 kts | 352° |
| 2026-02-17 12:22 | 38.86132 | 27.13784 | 27971 ft | 465 kts | 352° |
| 2026-02-17 12:22 | 38.89326 | 27.13665 | 27977 ft | 465 kts | 352° |
| 2026-02-17 12:22 | 38.92552 | 27.13548 | 27975 ft | 459 kts | 352° |
| 2026-02-17 12:23 | 38.98765 | 27.13352 | 27973 ft | 438 kts | 354° |
| 2026-02-17 12:23 | 39.01868 | 27.13629 | 27975 ft | 457 kts | 2° |
| 2026-02-17 12:23 | 39.05076 | 27.14218 | 27975 ft | 471 kts | 2° |
| 2026-02-17 12:23 | 39.08330 | 27.14811 | 27971 ft | 473 kts | 2° |
| 2026-02-17 12:24 | 39.11592 | 27.15406 | 27980 ft | 474 kts | 3° |
| 2026-02-17 12:24 | 39.14861 | 27.16002 | 27969 ft | 474 kts | 3° |
| 2026-02-17 12:24 | 39.18127 | 27.16600 | 27970 ft | 474 kts | 3° |
| 2026-02-17 12:24 | 39.21400 | 27.17200 | 27973 ft | 474 kts | 3° |
| 2026-02-17 12:25 | 39.24654 | 27.17804 | 27967 ft | 469 kts | 2° |
| 2026-02-17 12:25 | 39.27837 | 27.18391 | 27965 ft | 468 kts | 2° |
| 2026-02-17 12:25 | 39.31113 | 27.18990 | 27974 ft | 470 kts | 2° |
| 2026-02-17 12:25 | 39.34348 | 27.19580 | 27969 ft | 470 kts | 2° |
| 2026-02-17 12:26 | 39.37541 | 27.20166 | 27967 ft | 469 kts | 2° |
| 2026-02-17 12:26 | 39.40770 | 27.20760 | 27968 ft | 469 kts | 3° |
| 2026-02-17 12:26 | 39.44009 | 27.21357 | 27966 ft | 470 kts | 3° |
| 2026-02-17 12:27 | 39.50481 | 27.22325 | 27962 ft | 464 kts | 355° |
| 2026-02-17 12:27 | 39.53691 | 27.22188 | 27955 ft | 461 kts | 350° |
| 2026-02-17 12:27 | 39.56899 | 27.21965 | 27959 ft | 461 kts | 351° |
| 2026-02-17 12:27 | 39.60099 | 27.21755 | 27959 ft | 461 kts | 351° |
| 2026-02-17 12:28 | 39.63303 | 27.21548 | 27957 ft | 461 kts | 351° |
| 2026-02-17 12:28 | 39.66505 | 27.21336 | 27953 ft | 460 kts | 351° |
| 2026-02-17 12:28 | 39.69712 | 27.21123 | 27967 ft | 461 kts | 351° |
| 2026-02-17 12:28 | 39.72918 | 27.20912 | 27951 ft | 460 kts | 351° |
| 2026-02-17 12:29 | 39.76124 | 27.20699 | 27946 ft | 461 kts | 351° |
| 2026-02-17 12:29 | 39.79282 | 27.20488 | 27945 ft | 461 kts | 351° |
| 2026-02-17 12:29 | 39.82475 | 27.20276 | 27944 ft | 461 kts | 351° |
| 2026-02-17 12:29 | 39.85684 | 27.20061 | 27947 ft | 461 kts | 351° |
| 2026-02-17 12:30 | 39.88885 | 27.19847 | 27938 ft | 461 kts | 351° |
| 2026-02-17 12:30 | 39.92083 | 27.19632 | 27942 ft | 460 kts | 351° |
| 2026-02-17 12:30 | 39.95285 | 27.19462 | 27930 ft | 462 kts | 355° |
| 2026-02-17 12:31 | 40.01726 | 27.20591 | 27925 ft | 473 kts | 11° |
| 2026-02-17 12:31 | 40.04875 | 27.21865 | 27921 ft | 475 kts | 13° |
| 2026-02-17 12:31 | 40.08031 | 27.23160 | 27919 ft | 475 kts | 13° |
| 2026-02-17 12:31 | 40.11194 | 27.24450 | 27928 ft | 477 kts | 13° |
| 2026-02-17 12:32 | 40.14360 | 27.25744 | 27931 ft | 476 kts | 13° |
| 2026-02-17 12:32 | 40.17537 | 27.26938 | 27925 ft | 473 kts | 8° |
| 2026-02-17 12:32 | 40.20771 | 27.27615 | 27924 ft | 468 kts | 360° |
| 2026-02-17 12:32 | 40.24019 | 27.27850 | 27915 ft | 466 kts | 357° |
| 2026-02-17 12:33 | 40.27265 | 27.28068 | 27915 ft | 466 kts | 358° |
| 2026-02-17 12:33 | 40.30513 | 27.28296 | 27920 ft | 468 kts | 357° |
| 2026-02-17 12:33 | 40.33763 | 27.28525 | 27915 ft | 468 kts | 357° |
| 2026-02-17 12:33 | 40.37010 | 27.28751 | 27916 ft | 468 kts | 357° |
| 2026-02-17 12:34 | 40.40270 | 27.28977 | 27910 ft | 468 kts | 357° |
| 2026-02-17 12:34 | 40.43509 | 27.29216 | 27909 ft | 462 kts | 359° |
| 2026-02-17 12:34 | 40.46656 | 27.29510 | 27910 ft | 456 kts | 359° |
| 2026-02-17 12:35 | 40.52902 | 27.30046 | 27907 ft | 442 kts | 358° |
| 2026-02-17 12:35 | 40.55952 | 27.30265 | 27914 ft | 437 kts | 357° |
| 2026-02-17 12:35 | 40.59028 | 27.30421 | 27912 ft | 449 kts | 355° |
| 2026-02-17 12:35 | 40.62206 | 27.30523 | 27911 ft | 464 kts | 355° |
| 2026-02-17 12:36 | 40.65452 | 27.30647 | 27909 ft | 466 kts | 356° |
| 2026-02-17 12:36 | 40.68673 | 27.30839 | 27907 ft | 461 kts | 358° |
| 2026-02-17 12:36 | 40.70803 | 27.30938 | 27909 ft | 460 kts | 353° |
| 2026-02-17 12:36 | 40.73965 | 27.30495 | 27908 ft | 453 kts | 342° |
| 2026-02-17 12:37 | 40.76952 | 27.29311 | 27906 ft | 445 kts | 331° |
| 2026-02-17 12:37 | 40.79749 | 27.27625 | 27906 ft | 442 kts | 328° |
| 2026-02-17 12:37 | 40.82545 | 27.25911 | 27907 ft | 442 kts | 328° |
| 2026-02-17 12:37 | 40.85332 | 27.24206 | 27906 ft | 442 kts | 328° |
| 2026-02-17 12:38 | 40.88126 | 27.22496 | 27921 ft | 442 kts | 328° |
| 2026-02-17 12:38 | 40.90886 | 27.20804 | 27904 ft | 442 kts | 328° |
| 2026-02-17 12:38 | 40.93679 | 27.19089 | 27906 ft | 442 kts | 328° |
| 2026-02-17 12:39 | 40.99263 | 27.15653 | 27906 ft | 444 kts | 329° |
| 2026-02-17 12:39 | 41.02192 | 27.14268 | 27906 ft | 453 kts | 341° |
| 2026-02-17 12:39 | 41.05354 | 27.13744 | 27904 ft | 462 kts | 354° |
| 2026-02-17 12:39 | 41.08587 | 27.14147 | 27904 ft | 470 kts | 8° |
| 2026-02-17 12:40 | 41.11718 | 27.15467 | 27906 ft | 476 kts | 21° |
| 2026-02-17 12:40 | 41.14596 | 27.17660 | 27889 ft | 480 kts | 34° |
| 2026-02-17 12:40 | 41.17076 | 27.20629 | 27906 ft | 482 kts | 47° |
| 2026-02-17 12:40 | 41.19238 | 27.24021 | 27871 ft | 481 kts | 49° |
| 2026-02-17 12:41 | 41.21454 | 27.27324 | 27567 ft | 477 kts | 47° |
| 2026-02-17 12:41 | 41.23430 | 27.30856 | 27500 ft | 476 kts | 61° |
| 2026-02-17 12:41 | 41.24768 | 27.34810 | 27499 ft | 474 kts | 74° |
| 2026-02-17 12:41 | 41.25437 | 27.39069 | 27502 ft | 469 kts | 88° |
| 2026-02-17 12:42 | 41.25390 | 27.43372 | 27504 ft | 463 kts | 102° |
| 2026-02-17 12:42 | 41.24638 | 27.47495 | 27497 ft | 455 kts | 116° |
| 2026-02-17 12:42 | 41.23231 | 27.51215 | 27509 ft | 448 kts | 129° |
| 2026-02-17 12:43 | 41.18895 | 27.56840 | 27508 ft | 432 kts | 150° |
| 2026-02-17 12:43 | 41.16502 | 27.59272 | 27489 ft | 434 kts | 146° |
| 2026-02-17 12:43 | 41.14298 | 27.62046 | 27507 ft | 440 kts | 136° |
| 2026-02-17 12:43 | 41.12555 | 27.65446 | 27502 ft | 451 kts | 123° |
| 2026-02-17 12:44 | 41.11357 | 27.69320 | 27504 ft | 459 kts | 111° |
| 2026-02-17 12:44 | 41.10518 | 27.73425 | 27503 ft | 461 kts | 109° |
| 2026-02-17 12:44 | 41.09748 | 27.77552 | 27498 ft | 463 kts | 105° |
| 2026-02-17 12:44 | 41.09335 | 27.81799 | 27499 ft | 467 kts | 97° |
| 2026-02-17 12:45 | 41.09274 | 27.86113 | 27498 ft | 469 kts | 94° |
| 2026-02-17 12:45 | 41.09256 | 27.90441 | 27502 ft | 470 kts | 91° |
| 2026-02-17 12:45 | 41.09557 | 27.94777 | 27500 ft | 473 kts | 83° |
| 2026-02-17 12:45 | 41.10199 | 27.99059 | 27497 ft | 474 kts | 81° |
| 2026-02-17 12:46 | 41.10900 | 28.03332 | 27495 ft | 475 kts | 75° |
| 2026-02-17 12:46 | 41.12135 | 28.07401 | 27485 ft | 477 kts | 62° |
| 2026-02-17 12:46 | 41.13977 | 28.11024 | 27278 ft | 472 kts | 49° |
| 2026-02-17 12:47 | 41.19049 | 28.16193 | 26464 ft | 456 kts | 20° |
| 2026-02-17 12:47 | 41.22052 | 28.17452 | 26202 ft | 449 kts | 6° |
| 2026-02-17 12:47 | 41.25134 | 28.17727 | 25948 ft | 441 kts | 352° |
| 2026-02-17 12:47 | 41.28118 | 28.17030 | 25688 ft | 429 kts | 337° |
| 2026-02-17 12:48 | 41.30795 | 28.15423 | 25434 ft | 417 kts | 322° |
| 2026-02-17 12:48 | 41.33011 | 28.13028 | 25181 ft | 406 kts | 307° |
| 2026-02-17 12:48 | 41.34695 | 28.10059 | 24923 ft | 400 kts | 299° |
| 2026-02-17 12:48 | 41.36416 | 28.07142 | 24672 ft | 404 kts | 309° |
| 2026-02-17 12:49 | 41.38492 | 28.04599 | 24445 ft | 407 kts | 315° |
| 2026-02-17 12:49 | 41.40797 | 28.02377 | 24202 ft | 412 kts | 324° |
| 2026-02-17 12:49 | 41.43400 | 28.00741 | 23969 ft | 417 kts | 335° |
| 2026-02-17 12:49 | 41.46198 | 27.99632 | 23740 ft | 420 kts | 341° |
| 2026-02-17 12:50 | 41.48985 | 27.98636 | 23509 ft | 419 kts | 341° |
| 2026-02-17 12:50 | 41.51855 | 27.97892 | 23270 ft | 421 kts | 349° |
| 2026-02-17 12:50 | 41.54787 | 27.97673 | 23019 ft | 423 kts | 357° |
| 2026-02-17 12:51 | 41.60508 | 27.99366 | 22467 ft | 428 kts | 26° |
| 2026-02-17 12:51 | 41.62938 | 28.01626 | 22183 ft | 422 kts | 43° |
| 2026-02-17 12:51 | 41.64775 | 28.04599 | 21916 ft | 409 kts | 60° |
| 2026-02-17 12:51 | 41.65871 | 28.07994 | 21480 ft | 399 kts | 77° |
| 2026-02-17 12:52 | 41.66173 | 28.11628 | 20879 ft | 391 kts | 96° |
| 2026-02-17 12:52 | 41.65635 | 28.15134 | 20288 ft | 382 kts | 115° |
| 2026-02-17 12:52 | 41.64330 | 28.18152 | 19702 ft | 371 kts | 134° |
| 2026-02-17 12:52 | 41.62497 | 28.20535 | 19101 ft | 367 kts | 141° |
| 2026-02-17 12:53 | 41.60765 | 28.23052 | 18483 ft | 371 kts | 129° |
| 2026-02-17 12:53 | 41.59497 | 28.26084 | 17874 ft | 376 kts | 116° |
| 2026-02-17 12:53 | 41.58691 | 28.29419 | 17201 ft | 379 kts | 107° |
| 2026-02-17 12:53 | 41.58175 | 28.32873 | 16534 ft | 380 kts | 102° |
| 2026-02-17 12:54 | 41.57797 | 28.36366 | 15883 ft | 379 kts | 101° |
| 2026-02-17 12:54 | 41.57465 | 28.39855 | 15230 ft | 376 kts | 100° |
| 2026-02-17 12:54 | 41.57150 | 28.43276 | 14602 ft | 367 kts | 99° |
| 2026-02-17 12:55 | 41.58264 | 28.49685 | 13391 ft | 359 kts | 56° |
| 2026-02-17 12:55 | 41.59974 | 28.52049 | 12737 ft | 353 kts | 34° |
| 2026-02-17 12:55 | 41.62084 | 28.53657 | 12014 ft | 348 kts | 26° |
| 2026-02-17 12:55 | 41.64024 | 28.55548 | 11231 ft | 345 kts | 49° |
| 2026-02-17 12:56 | 41.65302 | 28.58210 | 10476 ft | 338 kts | 72° |
| 2026-02-17 12:56 | 41.65739 | 28.61234 | 9747 ft | 328 kts | 95° |
| 2026-02-17 12:56 | 41.65303 | 28.64144 | 8976 ft | 316 kts | 116° |
| 2026-02-17 12:56 | 41.64376 | 28.66774 | 8180 ft | 309 kts | 127° |
| 2026-02-17 12:57 | 41.63009 | 28.68892 | 7660 ft | 287 kts | 144° |
| 2026-02-17 12:57 | 41.61436 | 28.70307 | 7401 ft | 259 kts | 158° |
| 2026-02-17 12:57 | 41.59896 | 28.71372 | 7160 ft | 240 kts | 160° |
| 2026-02-17 12:57 | 41.58376 | 28.72046 | 6672 ft | 229 kts | 174° |
| 2026-02-17 12:58 | 41.56880 | 28.72158 | 6536 ft | 199 kts | 183° |
| 2026-02-17 12:58 | 41.55555 | 28.72168 | 6213 ft | 184 kts | 183° |
| 2026-02-17 12:58 | 41.54279 | 28.72186 | 5617 ft | 184 kts | 182° |
| 2026-02-17 12:59 | 41.51692 | 28.72242 | 4537 ft | 179 kts | 182° |
| 2026-02-17 12:59 | 41.50500 | 28.72268 | 4299 ft | 165 kts | 183° |
| 2026-02-17 12:59 | 41.49394 | 28.72291 | 4073 ft | 154 kts | 183° |
| 2026-02-17 12:59 | 41.48322 | 28.72312 | 3872 ft | 150 kts | 182° |
| 2026-02-17 13:00 | 41.47321 | 28.72334 | 3672 ft | 141 kts | 182° |
| 2026-02-17 13:00 | 41.46373 | 28.72354 | 3489 ft | 132 kts | 183° |
| 2026-02-17 13:00 | 41.45473 | 28.72372 | 3314 ft | 126 kts | 183° |
| 2026-02-17 13:00 | 41.44611 | 28.72390 | 3128 ft | 122 kts | 183° |
| 2026-02-17 13:01 | 41.43721 | 28.72398 | 2736 ft | 134 kts | 183° |
| 2026-02-17 13:01 | 41.42773 | 28.72408 | 2474 ft | 135 kts | 182° |
| 2026-02-17 13:01 | 41.41714 | 28.72415 | 2640 ft | 155 kts | 182° |
| 2026-02-17 13:01 | 41.40755 | 28.72447 | 2749 ft | 122 kts | 179° |
| 2026-02-17 13:02 | 41.39977 | 28.72657 | 2619 ft | 109 kts | 168° |
| 2026-02-17 13:02 | 41.39288 | 28.72996 | 2394 ft | 100 kts | 175° |
| 2026-02-17 13:02 | 41.38514 | 28.73109 | 2354 ft | 134 kts | 181° |
| 2026-02-17 13:03 | 41.36657 | 28.73050 | 2581 ft | 106 kts | 184° |
| 2026-02-17 13:03 | 41.35991 | 28.73014 | 2446 ft | 91 kts | 189° |
| 2026-02-17 13:03 | 41.35281 | 28.72849 | 2357 ft | 122 kts | 192° |
| 2026-02-17 13:03 | 41.34455 | 28.72702 | 2350 ft | 119 kts | 185° |
| 2026-02-17 13:04 | 41.33635 | 28.72691 | 2191 ft | 114 kts | 182° |
| 2026-02-17 13:04 | 41.32852 | 28.72682 | 1878 ft | 112 kts | 183° |
| 2026-02-17 13:04 | 41.32056 | 28.72689 | 1509 ft | 117 kts | 180° |
| 2026-02-17 13:04 | 41.31238 | 28.72682 | 1045 ft | 120 kts | 181° |
| 2026-02-17 13:05 | 41.30360 | 28.72702 | 481 ft | 130 kts | 180° |
| 2026-02-17 13:05 | 41.29491 | 28.72702 | 200 ft | 116 kts | 178° |
| 2026-02-17 13:05 | 41.28829 | 28.72724 | 174 ft | 49 kts | 179° |
| 2026-02-17 13:05 | 41.28531 | 28.72729 | 175 ft | 42 kts | 179° |
| 2026-02-17 13:06 | 41.28222 | 28.72732 | 178 ft | 44 kts | 180° |
| 2026-02-17 13:06 | 41.28034 | 28.72733 | 178 ft | 25 kts | 180° |
| 2026-02-17 13:06 | 41.27863 | 28.72733 | 178 ft | 24 kts | 180° |
| 2026-02-17 13:07 | 41.27567 | 28.72735 | 175 ft | 28 kts | 179° |
| 2026-02-17 13:07 | 41.27325 | 28.72740 | 174 ft | 38 kts | 179° |
| 2026-02-17 13:07 | 41.27137 | 28.72743 | 175 ft | 27 kts | 178° |
| 2026-02-17 13:07 | 41.26891 | 28.72762 | 177 ft | 39 kts | 178° |
| 2026-02-17 13:08 | 41.26713 | 28.72770 | 178 ft | 24 kts | 178° |
| 2026-02-17 13:08 | 41.26589 | 28.72781 | 178 ft | 10 kts | 175° |
| 2026-02-17 13:08 | 41.26417 | 28.72774 | 177 ft | 29 kts | 187° |
| 2026-02-17 13:08 | 41.26323 | 28.72779 | 176 ft | 12 kts | 156° |
| 2026-02-17 13:09 | 41.26291 | 28.72902 | 176 ft | 17 kts | 88° |
| 2026-02-17 13:09 | 41.26291 | 28.72919 | 176 ft | 0 kts | 88° |
| 2026-02-17 13:09 | 41.26294 | 28.73063 | 176 ft | 28 kts | 89° |
| 2026-02-17 13:09 | 41.26294 | 28.73152 | 176 ft | 6 kts | 89° |
| 2026-02-17 13:10 | 41.26322 | 28.73227 | 176 ft | 8 kts | 11° |
| 2026-02-17 13:10 | 41.26448 | 28.73232 | 176 ft | 27 kts | 359° |
| 2026-02-17 13:10 | 41.26575 | 28.73248 | 176 ft | 2 kts | 51° |
| 2026-02-17 13:11 | 41.26598 | 28.73324 | 176 ft | 3 kts | 81° |
| 2026-02-17 13:11 | 41.26591 | 28.73377 | 176 ft | 8 kts | 114° |
| 2026-02-17 13:11 | 41.26593 | 28.73435 | 176 ft | 2 kts | 73° |
| 2026-02-17 13:11 | 41.26596 | 28.73448 | 176 ft | 0 kts | 74° |
| 2026-02-17 13:12 | 41.26597 | 28.73450 | 176 ft | 0 kts | 74° |